createdAt,value
2022-12-13T00:00:30.827Z,12.61
2022-12-13T00:01:32.634Z,10.84
2022-12-13T00:02:34.510Z,11.25
2022-12-13T00:03:36.373Z,13.89
2022-12-13T00:04:38.291Z,13.91
2022-12-13T00:05:40.093Z,13.65
2022-12-13T00:06:42.200Z,14.09
2022-12-13T00:07:44.012Z,14.94
2022-12-13T00:08:45.807Z,14.47
2022-12-13T00:09:47.638Z,13.48
2022-12-13T00:10:49.664Z,13.51
2022-12-13T00:11:51.488Z,13.51
2022-12-13T00:12:53.308Z,14.88
2022-12-13T00:13:55.107Z,13.33
2022-12-13T00:14:56.968Z,14.11
2022-12-13T00:15:58.875Z,15.78
2022-12-13T00:17:00.820Z,12.61
2022-12-13T00:18:02.610Z,13.47
2022-12-13T00:19:04.419Z,12.82
2022-12-13T00:20:06.994Z,14.20
2022-12-13T00:21:08.803Z,14.97
2022-12-13T00:22:10.607Z,15.23
2022-12-13T00:23:12.427Z,16.92
2022-12-13T00:24:14.206Z,19.10
2022-12-13T00:25:16.348Z,20.57
2022-12-13T00:26:18.696Z,20.76
2022-12-13T00:27:20.518Z,21.79
2022-12-13T00:28:22.312Z,22.13
2022-12-13T00:29:24.088Z,25.34
2022-12-13T00:30:26.082Z,31.04
2022-12-13T00:31:56.624Z,30.49
2022-12-13T00:32:31.541Z,24.49
2022-12-13T00:33:33.255Z,27.39
2022-12-13T00:34:35.035Z,25.53
2022-12-13T00:35:36.871Z,24.12
2022-12-13T00:36:38.788Z,22.67
2022-12-13T00:37:40.590Z,24.22
2022-12-13T00:38:42.403Z,22.77
2022-12-13T00:39:44.210Z,22.79
2022-12-13T00:40:46.500Z,22.40
2022-12-13T00:41:48.304Z,22.26
2022-12-13T00:42:50.116Z,22.24
2022-12-13T00:43:51.923Z,17.35
2022-12-13T00:44:53.708Z,17.85
2022-12-13T00:45:55.523Z,21.59
2022-12-13T00:46:57.392Z,21.31
2022-12-13T00:47:59.226Z,18.26
2022-12-13T00:49:01.057Z,18.48
2022-12-13T00:50:02.847Z,18.36
2022-12-13T00:51:04.708Z,16.29
2022-12-13T00:52:06.505Z,17.21
2022-12-13T00:53:08.334Z,14.82
2022-12-13T00:54:10.141Z,15.63
2022-12-13T00:55:12.307Z,14.36
2022-12-13T00:56:14.361Z,15.81
2022-12-13T00:57:16.234Z,15.72
2022-12-13T00:58:18.037Z,15.51
2022-12-13T00:59:19.860Z,15.53
2022-12-13T01:00:21.685Z,16.43
2022-12-13T01:01:23.558Z,14.45
2022-12-13T01:02:25.334Z,16.25
2022-12-13T01:03:27.160Z,16.13
2022-12-13T01:04:28.969Z,15.69
2022-12-13T01:06:12.597Z,14.61
2022-12-13T01:06:34.576Z,17.56
2022-12-13T01:07:36.349Z,18.23
2022-12-13T01:08:38.147Z,16.81
2022-12-13T01:09:39.979Z,16.95
2022-12-13T01:10:41.873Z,17.89
2022-12-13T01:11:43.730Z,17.06
2022-12-13T01:12:45.548Z,16.87
2022-12-13T01:13:47.369Z,15.23
2022-12-13T01:14:54.479Z,18.97
2022-12-13T01:15:52.808Z,17.59
2022-12-13T01:16:54.970Z,16.97
2022-12-13T01:17:56.775Z,16.64
2022-12-13T01:18:58.598Z,17.96
2022-12-13T01:20:00.408Z,18.59
2022-12-13T01:21:02.200Z,19.63
2022-12-13T01:22:04.056Z,17.20
2022-12-13T01:23:05.866Z,15.70
2022-12-13T01:24:07.687Z,14.65
2022-12-13T01:25:09.494Z,15.34
2022-12-13T01:26:11.402Z,17.84
2022-12-13T01:27:13.246Z,15.96
2022-12-13T01:28:15.185Z,15.19
2022-12-13T01:29:16.989Z,15.34
2022-12-13T01:30:18.787Z,13.76
2022-12-13T01:31:20.658Z,12.57
2022-12-13T01:32:22.524Z,13.22
2022-12-13T01:33:24.332Z,15.99
2022-12-13T01:34:26.822Z,15.99
2022-12-13T01:35:28.752Z,15.68
2022-12-13T01:36:30.777Z,14.13
2022-12-13T01:37:32.624Z,13.59
2022-12-13T01:38:38.143Z,12.62
2022-12-13T01:39:39.874Z,13.69
2022-12-13T01:40:41.880Z,12.01
2022-12-13T01:41:43.692Z,12.29
2022-12-13T01:42:45.573Z,12.47
2022-12-13T01:43:47.414Z,14.01
2022-12-13T01:44:49.216Z,12.83
2022-12-13T01:45:51.071Z,11.61
2022-12-13T01:46:52.823Z,11.03
2022-12-13T01:47:54.667Z,12.03
2022-12-13T01:48:56.483Z,12.66
2022-12-13T01:49:58.284Z,12.60
2022-12-13T01:51:01.512Z,11.59
2022-12-13T01:52:03.318Z,10.67
2022-12-13T01:53:05.158Z,11.44
2022-12-13T01:54:06.962Z,11.63
2022-12-13T01:55:08.765Z,12.64
2022-12-13T01:56:10.687Z,11.91
2022-12-13T01:57:12.489Z,12.04
2022-12-13T01:58:14.340Z,10.41
2022-12-13T01:59:16.242Z,10.08
2022-12-13T02:00:18.164Z,10.50
2022-12-13T02:01:19.989Z,12.86
2022-12-13T02:02:21.768Z,10.68
2022-12-13T02:03:23.602Z,9.67
2022-12-13T02:04:25.415Z,10.70
2022-12-13T02:05:27.275Z,10.70
2022-12-13T02:06:29.025Z,11.81
2022-12-13T02:07:30.834Z,9.97
2022-12-13T02:08:35.608Z,12.13
2022-12-13T02:09:36.313Z,11.28
2022-12-13T02:10:38.418Z,10.87
2022-12-13T02:11:40.232Z,12.97
2022-12-13T02:12:42.027Z,13.15
2022-12-13T02:13:43.893Z,14.00
2022-12-13T02:14:45.927Z,13.10
2022-12-13T02:15:47.793Z,13.36
2022-12-13T02:16:49.648Z,14.12
2022-12-13T02:17:51.466Z,14.51
2022-12-13T02:18:53.302Z,13.63
2022-12-13T02:19:55.122Z,13.47
2022-12-13T02:20:56.912Z,12.91
2022-12-13T02:21:58.722Z,14.68
2022-12-13T02:23:00.538Z,12.99
2022-12-13T02:24:08.961Z,13.41
2022-12-13T02:25:05.996Z,12.93
2022-12-13T02:26:08.010Z,11.72
2022-12-13T02:27:09.850Z,13.01
2022-12-13T02:28:31.027Z,12.98
2022-12-13T02:29:30.533Z,12.59
2022-12-13T02:30:19.002Z,12.73
2022-12-13T02:31:20.864Z,12.44
2022-12-13T02:32:22.716Z,13.74
2022-12-13T02:33:24.525Z,11.99
2022-12-13T02:34:26.381Z,11.76
2022-12-13T02:35:28.175Z,12.54
2022-12-13T02:36:35.931Z,12.35
2022-12-13T02:37:33.705Z,12.58
2022-12-13T02:38:35.524Z,11.09
2022-12-13T02:39:37.362Z,14.12
2022-12-13T02:40:39.175Z,12.05
2022-12-13T02:41:40.969Z,14.09
2022-12-13T02:42:42.781Z,13.88
2022-12-13T02:43:45.535Z,13.19
2022-12-13T02:44:47.765Z,12.93
2022-12-13T02:45:50.063Z,14.15
2022-12-13T02:46:52.097Z,14.09
2022-12-13T02:47:53.904Z,13.33
2022-12-13T02:48:55.714Z,13.89
2022-12-13T02:49:57.568Z,12.47
2022-12-13T02:50:59.466Z,13.14
2022-12-13T02:52:01.490Z,13.45
2022-12-13T02:53:03.284Z,13.54
2022-12-13T02:54:05.097Z,13.78
2022-12-13T02:55:06.936Z,15.52
2022-12-13T02:56:09.064Z,14.58
2022-12-13T02:57:10.862Z,14.80
2022-12-13T02:58:12.668Z,14.79
2022-12-13T02:59:14.461Z,14.43
2022-12-13T03:00:16.530Z,14.77
2022-12-13T03:01:29.231Z,15.09
2022-12-13T03:02:31.423Z,13.49
2022-12-13T03:03:25.678Z,13.21
2022-12-13T03:04:27.521Z,13.95
2022-12-13T03:05:29.364Z,14.03
2022-12-13T03:06:34.517Z,15.73
2022-12-13T03:07:34.786Z,13.77
2022-12-13T03:08:36.609Z,13.47
2022-12-13T03:09:38.418Z,16.01
2022-12-13T03:10:40.748Z,13.78
2022-12-13T03:11:42.535Z,13.31
2022-12-13T03:12:44.356Z,12.91
2022-12-13T03:13:46.140Z,12.78
2022-12-13T03:14:47.958Z,12.53
2022-12-13T03:15:49.890Z,13.93
2022-12-13T03:16:51.925Z,13.08
2022-12-13T03:17:53.728Z,14.34
2022-12-13T03:18:55.543Z,14.55
2022-12-13T03:19:57.369Z,14.64
2022-12-13T03:20:59.230Z,15.53
2022-12-13T03:22:01.041Z,12.92
2022-12-13T03:23:02.854Z,14.13
2022-12-13T03:24:04.641Z,13.18
2022-12-13T03:25:06.425Z,14.23
2022-12-13T03:26:08.790Z,13.03
2022-12-13T03:27:10.614Z,15.57
2022-12-13T03:28:12.428Z,14.37
2022-12-13T03:29:14.239Z,16.81
2022-12-13T03:30:17.851Z,16.66
2022-12-13T03:31:19.720Z,17.68
2022-12-13T03:32:21.590Z,20.50
2022-12-13T03:33:23.382Z,23.63
2022-12-13T03:34:25.161Z,23.55
2022-12-13T03:35:34.166Z,21.11
2022-12-13T03:36:32.582Z,20.53
2022-12-13T03:37:34.382Z,20.04
2022-12-13T03:38:36.176Z,19.06
2022-12-13T03:39:37.998Z,19.24
2022-12-13T03:40:39.906Z,18.63
2022-12-13T03:41:41.767Z,21.68
2022-12-13T03:42:43.597Z,18.25
2022-12-13T03:43:45.384Z,18.79
2022-12-13T03:44:47.210Z,19.87
2022-12-13T03:45:49.040Z,17.77
2022-12-13T03:46:50.968Z,15.82
2022-12-13T03:47:52.749Z,18.74
2022-12-13T03:48:54.552Z,18.14
2022-12-13T03:49:56.361Z,16.69
2022-12-13T03:50:58.483Z,18.24
2022-12-13T03:52:00.354Z,25.09
2022-12-13T03:53:02.251Z,37.05
2022-12-13T03:54:04.077Z,28.09
2022-12-13T03:55:05.896Z,26.92
2022-12-13T03:56:07.973Z,33.27
2022-12-13T03:57:09.821Z,31.61
2022-12-13T03:58:11.642Z,28.38
2022-12-13T03:59:14.746Z,29.23
2022-12-13T04:00:16.564Z,24.10
2022-12-13T04:01:18.409Z,33.82
2022-12-13T04:02:31.322Z,52.14
2022-12-13T04:03:24.016Z,50.92
2022-12-13T04:04:25.891Z,36.22
2022-12-13T04:05:27.701Z,22.58
2022-12-13T04:06:32.962Z,20.56
2022-12-13T04:07:34.366Z,22.92
2022-12-13T04:08:36.498Z,22.52
2022-12-13T04:09:38.348Z,21.21
2022-12-13T04:10:40.554Z,19.46
2022-12-13T04:11:43.115Z,16.90
2022-12-13T04:12:48.351Z,16.94
2022-12-13T04:13:48.950Z,17.69
2022-12-13T04:14:50.752Z,19.88
2022-12-13T04:15:52.595Z,17.41
2022-12-13T04:16:54.392Z,19.74
2022-12-13T04:17:56.228Z,19.71
2022-12-13T04:18:58.101Z,21.53
2022-12-13T04:19:59.920Z,24.15
2022-12-13T04:21:01.717Z,23.15
2022-12-13T04:22:03.518Z,21.84
2022-12-13T04:23:09.926Z,22.27
2022-12-13T04:24:08.979Z,22.78
2022-12-13T04:25:10.779Z,22.37
2022-12-13T04:26:12.583Z,26.76
2022-12-13T04:27:14.396Z,27.72
2022-12-13T04:28:21.563Z,28.64
2022-12-13T04:29:19.862Z,25.45
2022-12-13T04:30:22.088Z,24.64
2022-12-13T04:31:23.976Z,25.90
2022-12-13T04:32:27.263Z,26.21
2022-12-13T04:33:29.360Z,27.25
2022-12-13T04:34:36.907Z,27.35
2022-12-13T04:35:34.796Z,28.05
2022-12-13T04:36:36.693Z,27.33
2022-12-13T04:37:38.517Z,26.02
2022-12-13T04:38:40.431Z,25.70
2022-12-13T04:39:48.052Z,23.34
2022-12-13T04:40:45.868Z,21.31
2022-12-13T04:41:47.689Z,20.95
2022-12-13T04:42:49.503Z,20.49
2022-12-13T04:43:53.203Z,24.47
2022-12-13T04:44:55.019Z,26.19
2022-12-13T04:45:56.900Z,28.03
2022-12-13T04:47:00.958Z,30.07
2022-12-13T04:48:02.404Z,25.28
2022-12-13T04:49:04.254Z,25.01
2022-12-13T04:50:06.600Z,25.55
2022-12-13T04:51:08.417Z,28.85
2022-12-13T04:52:10.219Z,27.26
2022-12-13T04:53:12.035Z,27.07
2022-12-13T04:54:24.078Z,24.25
2022-12-13T04:55:17.635Z,23.79
2022-12-13T04:56:19.666Z,19.61
2022-12-13T04:57:21.478Z,18.14
2022-12-13T04:58:24.364Z,20.09
2022-12-13T04:59:26.231Z,17.38
2022-12-13T05:00:28.141Z,15.41
2022-12-13T05:01:30.388Z,16.86
2022-12-13T05:02:32.277Z,16.75
2022-12-13T05:03:34.056Z,16.91
2022-12-13T05:04:35.981Z,17.89
2022-12-13T05:05:37.994Z,16.60
2022-12-13T05:06:40.194Z,15.63
2022-12-13T05:07:43.027Z,17.93
2022-12-13T05:08:45.011Z,18.80
2022-12-13T05:09:46.856Z,15.93
2022-12-13T05:10:48.975Z,18.85
2022-12-13T05:11:50.779Z,18.41
2022-12-13T05:12:52.584Z,19.53
2022-12-13T05:13:54.391Z,18.95
2022-12-13T05:14:56.269Z,20.33
2022-12-13T05:15:58.095Z,21.60
2022-12-13T05:17:00.150Z,22.25
2022-12-13T05:18:09.455Z,20.72
2022-12-13T05:19:05.722Z,23.31
2022-12-13T05:20:08.160Z,24.33
2022-12-13T05:21:10.179Z,20.92
2022-12-13T05:22:17.748Z,24.55
2022-12-13T05:23:22.192Z,24.99
2022-12-13T05:24:19.214Z,24.22
2022-12-13T05:25:21.080Z,26.89
2022-12-13T05:26:23.002Z,24.60
2022-12-13T05:27:26.902Z,25.12
2022-12-13T05:28:29.065Z,24.26
2022-12-13T05:29:30.936Z,21.67
2022-12-13T05:30:32.768Z,20.41
2022-12-13T05:31:34.613Z,18.97
2022-12-13T05:32:44.165Z,17.90
2022-12-13T05:33:40.013Z,17.49
2022-12-13T05:34:41.827Z,17.65
2022-12-13T05:35:43.685Z,20.97
2022-12-13T05:36:45.661Z,21.83
2022-12-13T05:37:47.483Z,25.09
2022-12-13T05:38:51.091Z,30.26
2022-12-13T05:39:52.900Z,35.60
2022-12-13T05:40:55.048Z,63.21
2022-12-13T05:42:01.296Z,107.53
2022-12-13T05:43:00.651Z,103.16
2022-12-13T05:44:03.706Z,79.28
2022-12-13T05:45:05.503Z,63.39
2022-12-13T05:46:07.831Z,57.12
2022-12-13T05:47:09.689Z,44.75
2022-12-13T05:48:11.525Z,37.77
2022-12-13T05:49:13.438Z,47.31
2022-12-13T05:50:15.246Z,43.98
2022-12-13T05:51:17.095Z,39.83
2022-12-13T05:52:18.936Z,45.71
2022-12-13T05:53:30.955Z,47.60
2022-12-13T05:54:24.411Z,42.43
2022-12-13T05:55:26.229Z,41.11
2022-12-13T05:56:28.364Z,29.70
2022-12-13T05:57:30.178Z,32.41
2022-12-13T05:58:36.165Z,32.30
2022-12-13T05:59:35.608Z,23.53
2022-12-13T06:00:37.523Z,23.79
2022-12-13T06:01:43.607Z,17.09
2022-12-13T06:02:43.183Z,17.35
2022-12-13T06:03:45.216Z,17.77
2022-12-13T06:04:47.034Z,15.56
2022-12-13T06:05:48.831Z,15.46
2022-12-13T06:06:50.930Z,13.22
2022-12-13T06:07:56.715Z,14.39
2022-12-13T06:08:56.808Z,13.91
2022-12-13T06:10:10.539Z,16.13
2022-12-13T06:11:10.003Z,18.46
2022-12-13T06:12:05.839Z,17.07
2022-12-13T06:13:21.730Z,16.56
2022-12-13T06:14:22.456Z,16.34
2022-12-13T06:15:21.969Z,16.63
2022-12-13T06:16:23.643Z,14.81
2022-12-13T06:17:24.291Z,17.68
2022-12-13T06:18:26.095Z,15.83
2022-12-13T06:19:27.903Z,15.29
2022-12-13T06:20:29.824Z,15.50
2022-12-13T06:21:41.594Z,15.08
2022-12-13T06:22:35.278Z,14.02
2022-12-13T06:23:37.094Z,14.61
2022-12-13T06:24:39.130Z,17.77
2022-12-13T06:25:41.029Z,17.95
2022-12-13T06:26:45.213Z,20.41
2022-12-13T06:27:46.614Z,17.87
2022-12-13T06:28:48.432Z,17.51
2022-12-13T06:29:50.229Z,16.72
2022-12-13T06:30:52.066Z,17.48
2022-12-13T06:31:53.840Z,16.64
2022-12-13T06:32:55.819Z,16.65
2022-12-13T06:33:57.635Z,22.51
2022-12-13T06:34:59.442Z,17.91
2022-12-13T06:36:01.254Z,16.77
2022-12-13T06:37:03.102Z,15.12
2022-12-13T06:38:05.105Z,16.40
2022-12-13T06:39:08.736Z,16.30
2022-12-13T06:40:10.857Z,14.42
2022-12-13T06:41:12.676Z,17.35
2022-12-13T06:42:14.467Z,18.08
2022-12-13T06:43:18.122Z,16.59
2022-12-13T06:44:19.935Z,16.35
2022-12-13T06:45:21.754Z,19.43
2022-12-13T06:46:23.719Z,25.44
2022-12-13T06:47:31.345Z,25.77
2022-12-13T06:48:29.139Z,20.69
2022-12-13T06:49:32.459Z,17.15
2022-12-13T06:50:34.583Z,20.12
2022-12-13T06:51:36.384Z,18.10
2022-12-13T06:52:38.194Z,23.32
2022-12-13T06:53:40.054Z,21.69
2022-12-13T06:54:41.922Z,17.43
2022-12-13T06:55:43.727Z,19.74
2022-12-13T06:56:45.634Z,23.12
2022-12-13T06:57:47.454Z,24.61
2022-12-13T06:58:49.288Z,25.67
2022-12-13T06:59:51.115Z,26.53
2022-12-13T07:00:53.042Z,23.16
2022-12-13T07:01:54.913Z,23.53
2022-12-13T07:02:58.493Z,24.56
2022-12-13T07:04:00.334Z,28.24
2022-12-13T07:05:02.147Z,29.39
2022-12-13T07:06:04.057Z,22.04
2022-12-13T07:07:05.875Z,22.23
2022-12-13T07:08:07.719Z,25.39
2022-12-13T07:09:09.535Z,26.46
2022-12-13T07:10:12.682Z,25.68
2022-12-13T07:11:15.938Z,23.19
2022-12-13T07:12:17.735Z,23.80
2022-12-13T07:13:19.560Z,19.99
2022-12-13T07:14:21.435Z,18.94
2022-12-13T07:15:23.238Z,19.96
2022-12-13T07:16:25.111Z,23.63
2022-12-13T07:17:32.604Z,22.40
2022-12-13T07:18:30.588Z,18.64
2022-12-13T07:19:35.429Z,18.38
2022-12-13T07:20:37.394Z,14.63
2022-12-13T07:21:39.214Z,16.73
2022-12-13T07:22:47.232Z,20.27
2022-12-13T07:23:44.638Z,21.01
2022-12-13T07:24:46.584Z,17.24
2022-12-13T07:25:48.457Z,16.19
2022-12-13T07:26:50.364Z,15.52
2022-12-13T07:27:52.161Z,16.39
2022-12-13T07:28:55.604Z,16.03
2022-12-13T07:29:57.564Z,16.79
2022-12-13T07:30:59.936Z,13.62
2022-12-13T07:32:02.257Z,18.41
2022-12-13T07:33:04.092Z,16.51
2022-12-13T07:34:05.902Z,16.21
2022-12-13T07:35:08.056Z,14.87
2022-12-13T07:36:11.067Z,14.43
2022-12-13T07:37:29.460Z,15.30
2022-12-13T07:38:16.448Z,15.18
2022-12-13T07:39:18.277Z,14.99
2022-12-13T07:40:20.143Z,13.97
2022-12-13T07:41:23.225Z,15.87
2022-12-13T07:42:25.616Z,15.54
2022-12-13T07:43:27.441Z,17.23
2022-12-13T07:44:29.379Z,53.44
2022-12-13T07:45:31.226Z,39.33
2022-12-13T07:46:34.015Z,31.48
2022-12-13T07:47:36.003Z,19.19
2022-12-13T07:48:37.782Z,19.25
2022-12-13T07:49:39.598Z,19.04
2022-12-13T07:50:41.598Z,22.36
2022-12-13T07:51:43.410Z,18.09
2022-12-13T07:52:45.243Z,16.97
2022-12-13T07:53:47.066Z,14.95
2022-12-13T07:54:48.885Z,14.64
2022-12-13T07:55:50.757Z,16.41
2022-12-13T07:56:52.792Z,15.05
2022-12-13T07:57:54.613Z,18.15
2022-12-13T07:58:56.393Z,15.17
2022-12-13T07:59:58.216Z,13.20
2022-12-13T08:01:00.353Z,14.54
2022-12-13T08:02:02.325Z,14.04
2022-12-13T08:03:04.209Z,15.52
2022-12-13T08:04:06.017Z,13.11
2022-12-13T08:05:26.167Z,13.26
2022-12-13T08:06:11.950Z,15.64
2022-12-13T08:07:13.750Z,15.59
2022-12-13T08:08:15.651Z,13.87
2022-12-13T08:09:17.392Z,14.93
2022-12-13T08:10:19.212Z,13.66
2022-12-13T08:11:21.035Z,14.40
2022-12-13T08:12:23.058Z,15.97
2022-12-13T08:13:25.037Z,17.45
2022-12-13T08:14:26.848Z,15.12
2022-12-13T08:15:28.679Z,15.56
2022-12-13T08:16:30.971Z,13.23
2022-12-13T08:17:32.839Z,14.11
2022-12-13T08:18:34.662Z,14.51
2022-12-13T08:19:36.565Z,13.83
2022-12-13T08:20:39.001Z,16.07
2022-12-13T08:21:58.533Z,17.34
2022-12-13T08:22:44.503Z,19.00
2022-12-13T08:23:48.122Z,19.01
2022-12-13T08:24:49.958Z,18.25
2022-12-13T08:25:51.791Z,15.13
2022-12-13T08:26:53.767Z,15.11
2022-12-13T08:27:55.856Z,16.39
2022-12-13T08:28:59.481Z,15.18
2022-12-13T08:30:01.297Z,15.43
2022-12-13T08:31:03.168Z,18.89
2022-12-13T08:32:05.016Z,17.14
2022-12-13T08:33:06.804Z,16.01
2022-12-13T08:34:08.623Z,18.25
2022-12-13T08:35:10.510Z,20.52
2022-12-13T08:36:12.575Z,19.77
2022-12-13T08:37:14.481Z,17.97
2022-12-13T08:38:22.747Z,16.75
2022-12-13T08:39:20.187Z,17.43
2022-12-13T08:40:22.396Z,18.24
2022-12-13T08:41:24.257Z,21.00
2022-12-13T08:42:26.135Z,17.03
2022-12-13T08:43:28.076Z,17.09
2022-12-13T08:44:29.920Z,15.18
2022-12-13T08:45:31.814Z,14.64
2022-12-13T08:46:34.072Z,23.85
2022-12-13T08:47:41.575Z,16.13
2022-12-13T08:48:43.747Z,14.95
2022-12-13T08:49:43.265Z,17.24
2022-12-13T08:50:45.067Z,23.30
2022-12-13T08:51:46.885Z,27.85
2022-12-13T08:52:48.782Z,29.66
2022-12-13T08:53:51.782Z,31.36
2022-12-13T08:54:53.614Z,31.69
2022-12-13T08:55:55.446Z,21.59
2022-12-13T08:56:57.384Z,17.32
2022-12-13T08:58:01.208Z,16.80
2022-12-13T08:59:02.959Z,17.75
2022-12-13T09:00:04.928Z,17.70
2022-12-13T09:01:06.784Z,19.16
2022-12-13T09:02:08.697Z,15.95
2022-12-13T09:03:10.719Z,17.04
2022-12-13T09:04:12.566Z,17.10
2022-12-13T09:05:32.346Z,17.79
2022-12-13T09:06:18.124Z,18.47
2022-12-13T09:07:19.933Z,16.69
2022-12-13T09:08:24.842Z,18.36
2022-12-13T09:09:25.434Z,16.26
2022-12-13T09:10:27.937Z,18.40
2022-12-13T09:11:35.061Z,18.12
2022-12-13T09:12:33.427Z,19.18
2022-12-13T09:13:43.838Z,17.06
2022-12-13T09:14:45.605Z,16.09
2022-12-13T09:15:45.917Z,16.93
2022-12-13T09:16:50.805Z,15.54
2022-12-13T09:17:53.029Z,15.57
2022-12-13T09:18:56.025Z,17.96
2022-12-13T09:19:58.834Z,17.53
2022-12-13T09:21:11.145Z,15.11
2022-12-13T09:22:04.411Z,15.71
2022-12-13T09:23:06.216Z,14.38
2022-12-13T09:24:23.925Z,14.55
2022-12-13T09:25:14.938Z,14.33
2022-12-13T09:26:17.265Z,14.99
2022-12-13T09:27:27.831Z,15.47
2022-12-13T09:28:22.919Z,15.49
2022-12-13T09:29:24.728Z,15.97
2022-12-13T09:30:31.453Z,14.87
2022-12-13T09:31:30.619Z,16.21
2022-12-13T09:32:32.532Z,15.12
2022-12-13T09:33:41.442Z,19.59
2022-12-13T09:34:38.400Z,18.56
2022-12-13T09:35:40.294Z,18.54
2022-12-13T09:36:42.136Z,17.61
2022-12-13T09:37:46.070Z,16.31
2022-12-13T09:38:47.681Z,16.60
2022-12-13T09:39:55.047Z,18.51
2022-12-13T09:40:59.003Z,16.68
2022-12-13T09:42:01.177Z,18.15
2022-12-13T09:43:13.655Z,19.61
2022-12-13T09:44:04.381Z,16.37
2022-12-13T09:45:06.225Z,17.84
2022-12-13T09:46:22.091Z,33.84
2022-12-13T09:47:14.237Z,32.69
2022-12-13T09:48:16.093Z,30.00
2022-12-13T09:49:23.209Z,29.65
2022-12-13T09:50:24.987Z,26.19
2022-12-13T09:51:43.605Z,19.77
2022-12-13T09:52:33.511Z,17.59
2022-12-13T09:53:34.564Z,17.75
2022-12-13T09:54:41.305Z,17.60
2022-12-13T09:55:40.207Z,15.95
2022-12-13T09:56:41.992Z,16.73
2022-12-13T09:57:43.810Z,15.94
2022-12-13T09:58:45.626Z,15.64
2022-12-13T09:59:48.023Z,16.08
2022-12-13T10:00:52.241Z,16.11
2022-12-13T10:01:54.143Z,15.85
2022-12-13T10:02:55.939Z,33.21
2022-12-13T10:03:57.772Z,37.49
2022-12-13T10:05:01.702Z,42.04
2022-12-13T10:06:03.454Z,47.01
2022-12-13T10:07:05.267Z,51.04
2022-12-13T10:08:07.078Z,43.01
2022-12-13T10:09:08.924Z,30.89
2022-12-13T10:10:10.870Z,29.03
2022-12-13T10:11:12.747Z,26.98
2022-12-13T10:12:14.527Z,42.42
2022-12-13T10:13:16.502Z,41.69
2022-12-13T10:14:18.305Z,45.59
2022-12-13T10:15:22.349Z,48.88
2022-12-13T10:16:24.333Z,44.08
2022-12-13T10:17:26.252Z,27.63
2022-12-13T10:18:27.999Z,21.71
2022-12-13T10:19:30.228Z,22.12
2022-12-13T10:20:32.363Z,16.19
2022-12-13T10:21:34.243Z,19.83
2022-12-13T10:22:36.213Z,18.74
2022-12-13T10:23:59.757Z,17.29
2022-12-13T10:24:42.204Z,18.37
2022-12-13T10:25:44.436Z,19.73
2022-12-13T10:26:46.383Z,16.99
2022-12-13T10:27:48.165Z,18.59
2022-12-13T10:28:49.986Z,15.87
2022-12-13T10:29:51.847Z,16.12
2022-12-13T10:30:53.650Z,22.13
2022-12-13T10:31:55.549Z,22.91
2022-12-13T10:32:57.398Z,25.56
2022-12-13T10:33:59.193Z,23.76
2022-12-13T10:35:01.028Z,24.72
2022-12-13T10:36:02.943Z,27.01
2022-12-13T10:37:04.835Z,31.52
2022-12-13T10:38:06.745Z,26.22
2022-12-13T10:39:08.495Z,27.08
2022-12-13T10:40:11.021Z,25.99
2022-12-13T10:41:14.692Z,26.18
2022-12-13T10:42:23.415Z,26.27
2022-12-13T10:43:20.348Z,22.84
2022-12-13T10:44:22.270Z,36.79
2022-12-13T10:45:24.274Z,39.42
2022-12-13T10:46:26.174Z,37.57
2022-12-13T10:47:28.141Z,34.08
2022-12-13T10:48:30.021Z,33.63
2022-12-13T10:49:33.684Z,30.81
2022-12-13T10:50:35.712Z,28.17
2022-12-13T10:51:37.548Z,27.65
2022-12-13T10:52:43.436Z,32.13
2022-12-13T10:53:47.820Z,31.05
2022-12-13T10:54:48.047Z,36.62
2022-12-13T10:55:50.262Z,33.78
2022-12-13T10:56:52.200Z,30.37
2022-12-13T10:57:54.077Z,36.93
2022-12-13T10:58:55.888Z,40.96
2022-12-13T10:59:57.699Z,34.30
2022-12-13T11:00:59.738Z,29.99
2022-12-13T11:02:01.592Z,30.67
2022-12-13T11:03:06.975Z,33.57
2022-12-13T11:04:09.331Z,36.98
2022-12-13T11:05:11.462Z,36.54
2022-12-13T11:06:13.674Z,38.63
2022-12-13T11:07:15.442Z,37.59
2022-12-13T11:08:17.305Z,41.87
2022-12-13T11:09:23.190Z,37.82
2022-12-13T11:10:27.038Z,37.67
2022-12-13T11:11:26.510Z,39.92
2022-12-13T11:12:28.333Z,37.62
2022-12-13T11:13:30.219Z,36.48
2022-12-13T11:14:50.266Z,33.19
2022-12-13T11:16:10.636Z,35.64
2022-12-13T11:17:12.402Z,40.97
2022-12-13T11:18:14.222Z,60.31
2022-12-13T11:19:16.520Z,68.89
2022-12-13T11:20:18.500Z,70.63
2022-12-13T11:21:20.400Z,63.93
2022-12-13T11:22:22.226Z,55.21
2022-12-13T11:23:24.044Z,50.21
2022-12-13T11:24:25.826Z,43.49
2022-12-13T11:25:27.706Z,44.91
2022-12-13T11:26:30.122Z,51.01
2022-12-13T11:27:31.983Z,57.88
2022-12-13T11:28:33.773Z,61.57
2022-12-13T11:29:35.654Z,53.43
2022-12-13T11:30:37.587Z,59.29
2022-12-13T11:31:39.448Z,54.14
2022-12-13T11:32:41.241Z,46.62
2022-12-13T11:33:47.745Z,42.64
2022-12-13T11:34:46.757Z,36.04
2022-12-13T11:35:48.650Z,28.10
2022-12-13T11:36:50.487Z,26.84
2022-12-13T11:37:52.319Z,29.99
2022-12-13T11:38:57.796Z,27.53
2022-12-13T11:40:01.701Z,30.64
2022-12-13T11:41:01.665Z,27.11
2022-12-13T11:42:03.479Z,27.52
2022-12-13T11:43:05.276Z,28.62
2022-12-13T11:44:10.116Z,31.99
2022-12-13T11:45:13.383Z,34.61
2022-12-13T11:46:15.554Z,33.80
2022-12-13T11:47:19.465Z,34.49
2022-12-13T11:48:21.335Z,44.49
2022-12-13T11:49:23.137Z,47.95
2022-12-13T11:50:33.473Z,40.92
2022-12-13T11:51:29.001Z,37.56
2022-12-13T11:52:30.784Z,37.17
2022-12-13T11:53:32.613Z,36.52
2022-12-13T11:54:34.422Z,34.05
2022-12-13T11:55:36.259Z,38.26
2022-12-13T11:56:40.196Z,34.85
2022-12-13T11:57:42.027Z,50.79
2022-12-13T11:59:47.913Z,53.76
2022-12-13T12:00:49.887Z,43.37
2022-12-13T12:01:52.080Z,38.66
2022-12-13T12:02:53.993Z,36.37
2022-12-13T12:03:55.837Z,30.70
2022-12-13T12:05:00.904Z,39.37
2022-12-13T12:06:01.316Z,36.83
2022-12-13T12:07:24.512Z,39.51
2022-12-13T12:08:32.415Z,42.16
2022-12-13T12:09:10.519Z,49.39
2022-12-13T12:10:12.788Z,47.44
2022-12-13T12:11:14.625Z,45.31
2022-12-13T12:12:16.446Z,51.29
2022-12-13T12:13:20.074Z,48.39
2022-12-13T12:14:21.930Z,54.27
2022-12-13T12:15:26.662Z,59.69
2022-12-13T12:16:30.113Z,61.38
2022-12-13T12:17:36.452Z,58.59
2022-12-13T12:18:35.893Z,64.34
2022-12-13T12:19:37.831Z,64.93
2022-12-13T12:20:39.668Z,61.97
2022-12-13T12:22:45.180Z,64.39
2022-12-13T12:23:52.409Z,67.74
2022-12-13T12:24:50.726Z,67.72
2022-12-13T12:25:52.561Z,68.21
2022-12-13T12:26:54.553Z,66.71
2022-12-13T12:27:56.382Z,66.39
2022-12-13T12:29:01.479Z,80.21
2022-12-13T12:30:01.861Z,81.78
2022-12-13T12:31:03.756Z,88.93
2022-12-13T12:32:05.704Z,89.92
2022-12-13T12:33:08.378Z,91.45
2022-12-13T12:34:10.246Z,91.79
2022-12-13T12:35:13.459Z,92.19
2022-12-13T12:36:16.391Z,92.96
2022-12-13T12:37:18.358Z,85.03
2022-12-13T12:38:20.278Z,83.30
2022-12-13T12:39:26.405Z,65.22
2022-12-13T12:40:29.162Z,51.71
2022-12-13T12:41:29.911Z,40.70
2022-12-13T12:42:49.919Z,36.38
2022-12-13T12:43:35.621Z,39.76
2022-12-13T12:44:37.471Z,37.42
2022-12-13T12:45:55.712Z,40.55
2022-12-13T12:47:19.252Z,42.95
2022-12-13T12:49:01.356Z,30.86
2022-12-13T12:49:55.104Z,29.94
2022-12-13T12:50:57.026Z,27.54
2022-12-13T12:51:58.819Z,22.37
2022-12-13T12:53:04.459Z,20.26
2022-12-13T12:54:06.617Z,23.76
2022-12-13T12:55:08.432Z,25.86
2022-12-13T12:56:10.554Z,28.54
2022-12-13T12:57:12.472Z,38.87
2022-12-13T12:58:14.386Z,65.11
2022-12-13T12:59:16.855Z,66.33
2022-12-13T13:00:18.758Z,69.98
2022-12-13T13:01:20.660Z,70.79
2022-12-13T13:02:22.674Z,65.04
2022-12-13T13:03:27.185Z,60.57
2022-12-13T13:04:29.083Z,62.39
2022-12-13T13:05:30.927Z,57.54
2022-12-13T13:06:32.843Z,55.09
2022-12-13T13:07:39.642Z,52.07
2022-12-13T13:08:38.408Z,45.68
2022-12-13T13:09:40.360Z,35.91
2022-12-13T13:10:42.168Z,32.86
2022-12-13T13:11:45.810Z,37.20
2022-12-13T13:12:47.642Z,33.38
2022-12-13T13:13:49.500Z,30.59
2022-12-13T13:14:53.801Z,31.87
2022-12-13T13:15:55.937Z,33.63
2022-12-13T13:16:58.125Z,26.75
2022-12-13T13:17:59.956Z,25.89
2022-12-13T13:19:01.804Z,22.80
2022-12-13T13:20:11.578Z,27.12
2022-12-13T13:21:07.232Z,28.09
2022-12-13T13:22:30.391Z,27.03
2022-12-13T13:23:39.811Z,25.56
2022-12-13T13:24:16.367Z,26.07
2022-12-13T13:25:18.310Z,25.63